createdAt,value
2019-05-21T00:00:03.573Z,82.38
2019-05-21T00:02:33.191Z,82.42
2019-05-21T00:05:02.774Z,82.49
2019-05-21T00:07:32.576Z,82.49
2019-05-21T00:10:02.512Z,82.49
2019-05-21T00:12:32.609Z,82.55
2019-05-21T00:15:02.531Z,82.58
2019-05-21T00:17:32.413Z,82.67
2019-05-21T00:20:02.273Z,82.73
2019-05-21T00:22:32.265Z,82.93
2019-05-21T00:25:02.511Z,82.93
2019-05-21T00:27:32.823Z,82.84
2019-05-21T00:30:37.963Z,82.75
2019-05-21T00:33:43.268Z,82.91
2019-05-21T00:36:49.654Z,82.89
2019-05-21T00:39:55.140Z,83.02
2019-05-21T00:42:32.033Z,83.10
2019-05-21T00:45:02.344Z,83.24
2019-05-21T00:47:35.309Z,83.29
2019-05-21T00:50:06.417Z,83.41
2019-05-21T00:52:36.026Z,83.51
2019-05-21T00:55:05.920Z,83.53
2019-05-21T00:57:35.480Z,83.55
2019-05-21T01:00:06.058Z,83.49
2019-05-21T01:02:35.661Z,83.56
2019-05-21T01:05:05.661Z,83.66
2019-05-21T01:07:35.238Z,83.65
2019-05-21T01:10:05.121Z,83.67
2019-05-21T01:12:36.190Z,83.52
2019-05-21T01:15:06.003Z,83.50
2019-05-21T01:17:35.486Z,83.57
2019-05-21T01:20:05.106Z,83.68
2019-05-21T01:22:34.595Z,83.69
2019-05-21T01:25:04.333Z,83.67
2019-05-21T01:27:34.262Z,83.67
2019-05-21T01:30:04.157Z,83.75
2019-05-21T01:32:33.661Z,83.72
2019-05-21T01:35:16.006Z,83.75
2019-05-21T01:37:34.687Z,83.73
2019-05-21T01:40:04.434Z,83.69
2019-05-21T01:42:34.013Z,83.67
2019-05-21T01:45:03.575Z,83.68
2019-05-21T01:47:33.343Z,83.74
2019-05-21T01:50:02.935Z,83.75
2019-05-21T01:52:32.702Z,83.75
2019-05-21T01:55:05.474Z,83.86
2019-05-21T01:57:35.025Z,83.85
2019-05-21T02:00:04.819Z,83.80
2019-05-21T02:02:35.323Z,83.91
2019-05-21T02:05:04.985Z,84.00
2019-05-21T02:07:34.516Z,83.92
2019-05-21T02:10:04.777Z,84.11
2019-05-21T02:12:34.423Z,84.10
2019-05-21T02:15:04.042Z,84.23
2019-05-21T02:17:33.912Z,84.33
2019-05-21T02:20:03.481Z,84.40
2019-05-21T02:22:33.105Z,84.52
2019-05-21T02:25:02.820Z,84.54
2019-05-21T02:27:35.409Z,84.61
2019-05-21T02:30:07.251Z,84.59
2019-05-21T02:32:37.297Z,84.86
2019-05-21T02:35:07.603Z,85.01
2019-05-21T02:37:37.104Z,85.08
2019-05-21T02:40:07.287Z,85.14
2019-05-21T02:42:37.752Z,85.31
2019-05-21T02:45:08.267Z,85.51
2019-05-21T02:47:37.982Z,85.64
2019-05-21T02:50:08.532Z,85.44
2019-05-21T02:52:38.047Z,85.50
2019-05-21T02:55:08.154Z,85.51
2019-05-21T02:57:41.802Z,85.54
2019-05-21T03:00:38.601Z,85.38
2019-05-21T03:03:07.409Z,85.33
2019-05-21T03:05:37.354Z,85.23
2019-05-21T03:08:06.864Z,85.14
2019-05-21T03:10:36.573Z,85.12
2019-05-21T03:13:06.472Z,85.09
2019-05-21T03:15:36.105Z,85.09
2019-05-21T03:18:05.904Z,85.09
2019-05-21T03:20:35.615Z,85.13
2019-05-21T03:23:05.231Z,85.20
2019-05-21T03:25:34.817Z,85.21
2019-05-21T03:28:04.606Z,85.20
2019-05-21T03:30:34.158Z,85.14
2019-05-21T03:33:03.696Z,85.24
2019-05-21T03:35:33.741Z,85.29
2019-05-21T03:38:03.189Z,85.26
2019-05-21T03:40:32.731Z,85.24
2019-05-21T03:43:05.343Z,85.30
2019-05-21T03:45:34.968Z,85.14
2019-05-21T03:48:04.733Z,85.07
2019-05-21T03:50:34.769Z,84.99
2019-05-21T03:53:04.177Z,85.02
2019-05-21T03:55:33.781Z,84.96
2019-05-21T03:58:03.616Z,85.01
2019-05-21T04:00:33.217Z,84.98
2019-05-21T04:03:02.843Z,84.90
2019-05-21T04:05:32.805Z,84.85
2019-05-21T04:08:02.703Z,84.62
2019-05-21T04:10:33.086Z,84.67
2019-05-21T04:13:09.861Z,84.63
2019-05-21T04:15:59.752Z,84.66
2019-05-21T04:18:43.779Z,84.70
2019-05-21T04:21:13.522Z,84.62
2019-05-21T04:23:43.254Z,84.35
2019-05-21T04:26:13.020Z,84.25
2019-05-21T04:28:42.707Z,84.13
2019-05-21T04:31:12.454Z,84.11
2019-05-21T04:33:42.164Z,84.06
2019-05-21T04:36:11.848Z,84.02
2019-05-21T04:38:41.349Z,83.97
2019-05-21T04:41:11.557Z,83.88
2019-05-21T04:43:41.172Z,83.87
2019-05-21T04:46:11.551Z,83.87
2019-05-21T04:48:41.272Z,83.95
2019-05-21T04:51:13.689Z,83.88
2019-05-21T04:53:42.378Z,83.83
2019-05-21T04:56:11.984Z,83.83
2019-05-21T04:58:41.512Z,83.73
2019-05-21T05:01:11.100Z,83.66
2019-05-21T05:03:40.637Z,83.51
2019-05-21T05:06:10.388Z,83.30
2019-05-21T05:08:40.100Z,83.14
2019-05-21T05:11:09.784Z,82.98
2019-05-21T05:13:39.222Z,82.81
2019-05-21T05:16:09.167Z,82.52
2019-05-21T05:18:38.664Z,82.62
2019-05-21T05:21:08.347Z,82.70
2019-05-21T05:23:38.029Z,82.65
2019-05-21T05:26:08.043Z,82.54
2019-05-21T05:28:37.632Z,82.49
2019-05-21T05:31:07.808Z,82.37
2019-05-21T05:33:37.439Z,82.29
2019-05-21T05:36:07.138Z,82.17
2019-05-21T05:38:37.245Z,82.00
2019-05-21T05:41:06.990Z,81.90
2019-05-21T05:43:36.893Z,81.77
2019-05-21T05:46:06.882Z,81.74
2019-05-21T05:48:42.458Z,81.57
2019-05-21T05:51:12.723Z,81.44
2019-05-21T05:53:58.272Z,81.25
2019-05-21T05:56:29.643Z,81.07
2019-05-21T05:59:00.810Z,80.91
2019-05-21T06:01:33.197Z,80.58
2019-05-21T06:04:02.876Z,80.50
2019-05-21T06:06:32.635Z,80.32
2019-05-21T06:09:02.903Z,80.06
2019-05-21T06:11:32.927Z,80.04
2019-05-21T06:14:03.017Z,79.95
2019-05-21T06:16:32.971Z,79.58
2019-05-21T06:19:02.765Z,79.32
2019-05-21T06:21:32.932Z,79.40
2019-05-21T06:24:03.158Z,79.28
2019-05-21T06:26:32.684Z,79.20
2019-05-21T06:29:02.685Z,78.98
2019-05-21T06:31:33.042Z,78.59
2019-05-21T06:34:02.760Z,78.23
2019-05-21T06:36:32.827Z,77.86
2019-05-21T06:39:04.135Z,77.55
2019-05-21T06:41:33.763Z,77.41
2019-05-21T06:44:03.460Z,76.97
2019-05-21T06:46:33.382Z,76.58
2019-05-21T06:49:03.714Z,76.08
2019-05-21T06:51:33.621Z,75.55
2019-05-21T06:54:03.376Z,75.30
2019-05-21T06:56:33.121Z,74.85
2019-05-21T06:59:02.873Z,74.54
2019-05-21T07:01:33.001Z,74.67
2019-05-21T07:04:03.144Z,74.78
2019-05-21T07:06:32.657Z,74.85
2019-05-21T07:09:05.869Z,74.69
2019-05-21T07:11:35.592Z,74.32
2019-05-21T07:14:05.206Z,73.92
2019-05-21T07:16:35.189Z,73.48
2019-05-21T07:19:04.790Z,73.14
2019-05-21T07:21:34.376Z,72.87
2019-05-21T07:24:04.069Z,72.84
2019-05-21T07:26:33.525Z,72.44
2019-05-21T07:29:03.084Z,71.85
2019-05-21T07:31:32.780Z,71.50
2019-05-21T07:34:05.444Z,70.95
2019-05-21T07:36:35.962Z,70.89
2019-05-21T07:39:07.687Z,70.17
2019-05-21T07:41:37.421Z,70.40
2019-05-21T07:44:07.090Z,70.37
2019-05-21T07:46:39.534Z,69.35
2019-05-21T07:49:08.090Z,69.11
2019-05-21T07:51:37.630Z,67.38
2019-05-21T07:54:07.993Z,68.17
2019-05-21T07:56:37.812Z,68.22
2019-05-21T07:59:07.496Z,68.66
2019-05-21T08:01:37.165Z,68.13
2019-05-21T08:04:07.139Z,68.79
2019-05-21T08:06:36.774Z,69.12
2019-05-21T08:09:14.270Z,69.26
2019-05-21T08:11:38.718Z,69.35
2019-05-21T08:14:08.535Z,69.31
2019-05-21T08:16:38.165Z,69.45
2019-05-21T08:19:07.779Z,69.50
2019-05-21T08:21:37.440Z,69.33
2019-05-21T08:24:07.043Z,69.54
2019-05-21T08:26:36.972Z,69.30
2019-05-21T08:29:06.479Z,69.15
2019-05-21T08:31:36.197Z,69.07
2019-05-21T08:34:06.065Z,68.92
2019-05-21T08:36:35.601Z,68.49
2019-05-21T08:39:06.491Z,67.93
2019-05-21T08:41:36.431Z,66.97
2019-05-21T08:44:05.953Z,66.11
2019-05-21T08:46:35.544Z,65.35
2019-05-21T08:49:05.888Z,64.45
2019-05-21T08:51:35.439Z,64.22
2019-05-21T08:54:05.181Z,64.25
2019-05-21T08:56:35.047Z,63.48
2019-05-21T08:59:04.598Z,63.17
2019-05-21T09:01:36.268Z,62.88
2019-05-21T09:04:06.127Z,62.39
2019-05-21T09:06:35.771Z,61.86
2019-05-21T09:09:06.693Z,61.54
2019-05-21T09:11:36.781Z,61.97
2019-05-21T09:14:06.374Z,61.35
2019-05-21T09:16:36.254Z,60.87
2019-05-21T09:19:05.903Z,60.81
2019-05-21T09:21:35.645Z,61.19
2019-05-21T09:24:05.713Z,61.82
2019-05-21T09:26:35.629Z,62.97
2019-05-21T09:29:05.706Z,63.83
2019-05-21T09:31:36.098Z,64.31
2019-05-21T09:34:06.043Z,65.12
2019-05-21T09:36:36.338Z,65.69
2019-05-21T09:39:07.807Z,65.97
2019-05-21T09:41:37.559Z,66.36
2019-05-21T09:44:07.652Z,66.44
2019-05-21T09:46:37.385Z,66.48
2019-05-21T09:49:07.257Z,66.43
2019-05-21T09:51:36.902Z,66.44
2019-05-21T09:54:06.541Z,65.79
2019-05-21T09:56:36.800Z,64.92
2019-05-21T09:59:16.115Z,64.11
2019-05-21T10:01:48.832Z,63.44
2019-05-21T10:04:18.712Z,63.09
2019-05-21T10:06:48.410Z,62.64
2019-05-21T10:09:19.663Z,62.38
2019-05-21T10:11:49.165Z,62.45
2019-05-21T10:14:18.933Z,62.27
2019-05-21T10:16:48.658Z,62.46
2019-05-21T10:19:18.179Z,62.62
2019-05-21T10:21:47.797Z,62.58
2019-05-21T10:24:18.004Z,62.53
2019-05-21T10:26:47.580Z,62.76
2019-05-21T10:29:17.193Z,62.56
2019-05-21T10:31:46.998Z,62.51
2019-05-21T10:34:16.562Z,62.14
2019-05-21T10:36:46.165Z,61.40
2019-05-21T10:39:15.876Z,61.35
2019-05-21T10:41:46.307Z,61.03
2019-05-21T10:44:16.023Z,60.60
2019-05-21T10:46:45.648Z,60.28
2019-05-21T10:49:15.230Z,60.04
2019-05-21T10:51:44.830Z,59.77
2019-05-21T10:54:14.653Z,59.14
2019-05-21T10:56:47.861Z,59.13
2019-05-21T10:59:16.319Z,59.21
2019-05-21T11:02:17.041Z,59.03
2019-05-21T11:04:59.806Z,59.28
2019-05-21T11:07:29.607Z,59.15
2019-05-21T11:09:59.460Z,59.19
2019-05-21T11:12:32.039Z,58.65
2019-05-21T11:15:01.870Z,58.40
2019-05-21T11:17:48.054Z,58.34
2019-05-21T11:20:03.379Z,58.43
2019-05-21T11:22:32.979Z,58.24
2019-05-21T11:25:02.758Z,58.03
2019-05-21T11:27:33.162Z,57.92
2019-05-21T11:30:02.963Z,58.00
2019-05-21T11:32:32.755Z,58.07
2019-05-21T11:35:06.044Z,57.98
2019-05-21T11:37:35.673Z,57.24
2019-05-21T11:40:08.509Z,56.75
2019-05-21T11:42:37.560Z,56.64
2019-05-21T11:45:09.993Z,56.65
2019-05-21T11:47:39.711Z,57.10
2019-05-21T11:50:09.332Z,56.53
2019-05-21T11:52:39.021Z,56.67
2019-05-21T11:55:08.908Z,56.68
2019-05-21T11:57:38.482Z,56.03
2019-05-21T12:00:09.236Z,56.07
2019-05-21T12:02:39.277Z,55.89
2019-05-21T12:05:09.939Z,55.07
2019-05-21T12:07:39.515Z,54.60
2019-05-21T12:10:09.628Z,54.79
2019-05-21T12:12:39.369Z,55.20
2019-05-21T12:15:10.039Z,55.46
2019-05-21T12:17:39.644Z,54.97
2019-05-21T12:20:42.953Z,54.73
2019-05-21T12:23:43.481Z,54.83
2019-05-21T12:26:13.222Z,53.78
2019-05-21T12:28:42.998Z,52.55
2019-05-21T12:31:12.627Z,52.53
2019-05-21T12:33:44.431Z,51.79
2019-05-21T12:36:13.996Z,51.06
2019-05-21T12:38:43.639Z,50.58
2019-05-21T12:41:14.035Z,51.30
2019-05-21T12:43:43.556Z,51.85
2019-05-21T12:46:13.240Z,51.75
2019-05-21T12:48:42.952Z,52.01
2019-05-21T12:51:12.581Z,52.18
2019-05-21T12:53:42.432Z,52.27
2019-05-21T12:56:12.320Z,52.94
2019-05-21T12:58:42.083Z,53.43
2019-05-21T13:01:11.657Z,53.78
2019-05-21T13:03:41.462Z,53.87
2019-05-21T13:06:10.940Z,54.11
2019-05-21T13:08:40.569Z,54.55
2019-05-21T13:11:10.201Z,55.38
2019-05-21T13:13:40.061Z,55.38
2019-05-21T13:16:09.614Z,55.49
2019-05-21T13:18:39.191Z,55.34
2019-05-21T13:21:08.761Z,55.11
2019-05-21T13:23:38.326Z,54.99
2019-05-21T13:26:08.685Z,54.53
2019-05-21T13:28:38.999Z,54.25
2019-05-21T13:31:08.874Z,54.69
2019-05-21T13:33:38.430Z,54.89
2019-05-21T13:36:08.351Z,55.38
2019-05-21T13:38:39.166Z,55.61
2019-05-21T13:41:10.198Z,55.86
2019-05-21T13:43:40.288Z,56.17
2019-05-21T13:46:10.002Z,56.24
2019-05-21T13:48:39.949Z,56.14
2019-05-21T13:51:09.434Z,56.53
2019-05-21T13:53:39.556Z,56.46
2019-05-21T13:56:09.394Z,56.71
2019-05-21T13:58:39.045Z,56.65
2019-05-21T14:01:09.350Z,56.66
2019-05-21T14:03:39.507Z,56.58
2019-05-21T14:06:09.180Z,56.82
2019-05-21T14:08:38.699Z,57.42
2019-05-21T14:11:08.870Z,58.15
2019-05-21T14:13:38.523Z,58.63
2019-05-21T14:16:08.026Z,60.70
2019-05-21T14:18:37.853Z,62.41
2019-05-21T14:21:07.575Z,64.26
2019-05-21T14:23:37.100Z,67.19
2019-05-21T14:26:06.921Z,71.50
2019-05-21T14:28:36.527Z,73.14
2019-05-21T14:31:06.098Z,74.60
2019-05-21T14:33:35.832Z,76.04
2019-05-21T14:36:05.955Z,76.11
2019-05-21T14:38:35.702Z,76.19
2019-05-21T14:41:05.530Z,77.06
2019-05-21T14:43:35.217Z,77.39
2019-05-21T14:46:05.178Z,77.64
2019-05-21T14:48:34.726Z,77.87
2019-05-21T14:51:05.017Z,78.98
2019-05-21T14:53:34.612Z,78.83
2019-05-21T14:56:04.232Z,78.85
2019-05-21T14:58:33.967Z,78.62
2019-05-21T15:01:03.543Z,79.37
2019-05-21T15:03:33.024Z,79.75
2019-05-21T15:06:02.709Z,79.84
2019-05-21T15:08:35.291Z,79.92
2019-05-21T15:11:04.970Z,79.84
2019-05-21T15:13:34.518Z,79.51
2019-05-21T15:16:04.374Z,79.15
2019-05-21T15:18:34.045Z,79.08
2019-05-21T15:21:11.355Z,79.47
2019-05-21T15:23:41.608Z,79.39
2019-05-21T15:26:12.131Z,79.75
2019-05-21T15:28:41.626Z,79.66
2019-05-21T15:31:11.285Z,79.71
2019-05-21T15:33:40.886Z,79.59
2019-05-21T15:36:10.404Z,79.79
2019-05-21T15:38:50.264Z,79.85
2019-05-21T15:41:12.787Z,79.74
2019-05-21T15:43:42.644Z,79.68
2019-05-21T15:46:12.260Z,80.04
2019-05-21T15:48:41.728Z,80.26
2019-05-21T15:51:11.528Z,80.67
2019-05-21T15:53:41.127Z,80.76
2019-05-21T15:56:10.820Z,81.18
2019-05-21T15:58:40.323Z,81.66
2019-05-21T16:01:09.830Z,81.95
2019-05-21T16:03:39.384Z,82.37
2019-05-21T16:06:08.878Z,82.34
2019-05-21T16:08:38.560Z,82.68
2019-05-21T16:11:08.281Z,82.97
2019-05-21T16:13:37.796Z,83.20
2019-05-21T16:16:07.242Z,83.50
2019-05-21T16:18:37.111Z,83.55
2019-05-21T16:21:06.771Z,83.49
2019-05-21T16:23:36.471Z,83.41
2019-05-21T16:26:06.150Z,83.78
2019-05-21T16:28:36.092Z,84.40
2019-05-21T16:31:05.855Z,84.82
2019-05-21T16:33:35.563Z,84.81
2019-05-21T16:36:05.385Z,85.02
2019-05-21T16:38:36.313Z,85.02
2019-05-21T16:41:06.088Z,85.12
2019-05-21T16:43:35.735Z,85.04
2019-05-21T16:46:05.487Z,85.14
2019-05-21T16:48:35.026Z,85.11
2019-05-21T16:51:04.750Z,85.15
2019-05-21T16:53:36.889Z,85.23
2019-05-21T16:56:06.607Z,85.18
2019-05-21T16:58:36.412Z,85.02
2019-05-21T17:01:07.310Z,84.91
2019-05-21T17:03:37.396Z,84.97
2019-05-21T17:06:07.083Z,85.00
2019-05-21T17:08:37.190Z,85.13
2019-05-21T17:11:07.227Z,85.06
2019-05-21T17:13:36.798Z,84.95
2019-05-21T17:16:06.688Z,84.78
2019-05-21T17:18:36.268Z,84.64
2019-05-21T17:21:06.459Z,84.51
2019-05-21T17:23:36.416Z,84.51
2019-05-21T17:26:06.289Z,84.52
2019-05-21T17:28:36.030Z,84.60
2019-05-21T17:31:05.914Z,84.47
2019-05-21T17:33:35.528Z,84.53
2019-05-21T17:36:05.176Z,84.51
2019-05-21T17:38:37.492Z,84.48
2019-05-21T17:41:09.479Z,84.71
2019-05-21T17:43:39.719Z,84.62
2019-05-21T17:46:09.533Z,84.85
2019-05-21T17:48:39.303Z,84.93
2019-05-21T17:51:09.434Z,85.06
2019-05-21T17:53:39.202Z,85.19
2019-05-21T17:56:08.863Z,85.27
2019-05-21T17:58:38.964Z,85.31
2019-05-21T18:01:11.587Z,85.50
2019-05-21T18:03:42.482Z,85.58
2019-05-21T18:06:12.450Z,85.54
2019-05-21T18:08:46.437Z,85.72
2019-05-21T18:11:17.468Z,85.74
2019-05-21T18:13:49.689Z,86.14
2019-05-21T18:16:20.642Z,86.16
2019-05-21T18:18:53.683Z,86.15
2019-05-21T18:21:29.228Z,86.57
2019-05-21T18:24:03.663Z,87.39
2019-05-21T18:26:33.935Z,87.77
2019-05-21T18:29:03.750Z,87.72
2019-05-21T18:31:33.779Z,87.86
2019-05-21T18:34:03.635Z,87.97
2019-05-21T18:36:33.472Z,88.36
2019-05-21T18:39:03.350Z,88.42
2019-05-21T18:41:33.065Z,88.45
2019-05-21T18:44:05.827Z,88.70
2019-05-21T18:46:35.570Z,88.95
2019-05-21T18:49:05.264Z,89.01
2019-05-21T18:51:35.077Z,89.08
2019-05-21T18:54:04.878Z,89.29
2019-05-21T18:56:34.501Z,89.36
2019-05-21T18:59:05.161Z,89.36
2019-05-21T19:01:38.177Z,89.49
2019-05-21T19:04:08.213Z,89.46
2019-05-21T19:06:37.788Z,89.45
2019-05-21T19:09:08.651Z,89.51
2019-05-21T19:11:38.485Z,89.36
2019-05-21T19:14:08.115Z,89.32
2019-05-21T19:16:37.636Z,89.13
2019-05-21T19:19:07.593Z,89.03
2019-05-21T19:21:37.419Z,88.93
2019-05-21T19:24:07.232Z,88.84
2019-05-21T19:26:37.115Z,88.79
2019-05-21T19:29:07.868Z,88.73
2019-05-21T19:31:38.100Z,88.95
2019-05-21T19:34:08.767Z,89.15
2019-05-21T19:36:39.644Z,89.32
2019-05-21T19:39:09.472Z,89.41
2019-05-21T19:41:39.605Z,89.31
2019-05-21T19:44:09.341Z,89.23
2019-05-21T19:46:38.922Z,89.12
2019-05-21T19:49:08.555Z,89.10
2019-05-21T19:51:38.289Z,89.09
2019-05-21T19:54:07.860Z,89.04
2019-05-21T19:56:39.736Z,89.01
2019-05-21T19:59:09.684Z,88.99
2019-05-21T20:01:39.659Z,88.98
2019-05-21T20:04:11.614Z,88.95
2019-05-21T20:06:41.266Z,88.91
2019-05-21T20:09:15.209Z,88.95
2019-05-21T20:11:45.315Z,89.01
2019-05-21T20:14:15.235Z,89.18
2019-05-21T20:16:45.379Z,89.23
2019-05-21T20:19:15.521Z,89.28
2019-05-21T20:21:45.278Z,89.34
2019-05-21T20:24:15.315Z,89.45
2019-05-21T20:26:45.566Z,89.45
2019-05-21T20:29:16.160Z,89.50
2019-05-21T20:31:45.904Z,89.56
2019-05-21T20:34:15.725Z,89.63
2019-05-21T20:36:45.489Z,89.72
2019-05-21T20:39:18.841Z,89.74
2019-05-21T20:41:49.955Z,89.80
2019-05-21T20:44:20.427Z,89.85
2019-05-21T20:46:50.028Z,89.81
2019-05-21T20:49:20.090Z,89.77
2019-05-21T20:51:50.184Z,89.73
2019-05-21T20:54:21.931Z,89.71
2019-05-21T20:56:52.113Z,89.64
2019-05-21T20:59:21.723Z,89.59
2019-05-21T21:01:51.362Z,89.52
2019-05-21T21:04:20.873Z,89.41
2019-05-21T21:06:50.436Z,89.34
2019-05-21T21:09:20.631Z,89.17
2019-05-21T21:11:51.126Z,89.06
2019-05-21T21:14:22.525Z,89.02
2019-05-21T21:16:52.730Z,89.02
2019-05-21T21:19:22.748Z,89.00
2019-05-21T21:21:52.912Z,88.80
2019-05-21T21:24:22.467Z,88.68
2019-05-21T21:26:52.492Z,88.57
2019-05-21T21:29:22.362Z,88.46
2019-05-21T21:31:51.890Z,88.41
2019-05-21T21:34:21.723Z,88.37
2019-05-21T21:36:53.266Z,88.39
2019-05-21T21:39:23.477Z,88.39
2019-05-21T21:41:53.321Z,88.42
2019-05-21T21:44:33.649Z,88.50
2019-05-21T21:46:55.200Z,88.46
2019-05-21T21:49:27.506Z,88.47
2019-05-21T21:51:57.025Z,88.51
2019-05-21T21:54:26.581Z,88.60
2019-05-21T21:56:56.335Z,88.58
2019-05-21T21:59:26.137Z,88.62
2019-05-21T22:02:00.216Z,88.70
2019-05-21T22:04:35.782Z,88.80
2019-05-21T22:07:06.149Z,88.89
2019-05-21T22:09:37.864Z,88.99
2019-05-21T22:12:10.366Z,89.06
2019-05-21T22:14:50.222Z,89.12
2019-05-21T22:17:15.870Z,89.10
2019-05-21T22:19:45.440Z,89.06
2019-05-21T22:22:14.997Z,89.00
2019-05-21T22:24:44.917Z,89.07
2019-05-21T22:27:14.576Z,89.16
2019-05-21T22:29:44.326Z,89.23
2019-05-21T22:32:16.629Z,89.20
2019-05-21T22:34:45.409Z,89.22
2019-05-21T22:37:16.958Z,89.22
2019-05-21T22:39:48.068Z,89.17
2019-05-21T22:42:17.747Z,89.10
2019-05-21T22:44:48.136Z,88.99
2019-05-21T22:47:17.762Z,88.87
2019-05-21T22:49:47.463Z,88.96
2019-05-21T22:52:17.261Z,89.11
2019-05-21T22:54:47.579Z,89.04
2019-05-21T22:57:17.383Z,89.06
2019-05-21T22:59:48.165Z,88.99
2019-05-21T23:02:22.595Z,89.00
2019-05-21T23:04:52.637Z,89.02
2019-05-21T23:07:22.348Z,88.98
2019-05-21T23:09:51.810Z,88.95
2019-05-21T23:12:21.522Z,88.88
2019-05-21T23:14:51.355Z,88.83
2019-05-21T23:17:21.389Z,88.92
2019-05-21T23:19:51.190Z,88.84
2019-05-21T23:22:23.029Z,88.72
2019-05-21T23:24:53.373Z,88.75
2019-05-21T23:27:22.949Z,88.68
2019-05-21T23:29:52.996Z,88.61
2019-05-21T23:32:23.417Z,88.62
2019-05-21T23:34:53.623Z,88.67
2019-05-21T23:37:24.188Z,88.71
2019-05-21T23:39:55.760Z,88.78
2019-05-21T23:42:29.906Z,88.83
2019-05-21T23:44:57.772Z,88.81
2019-05-21T23:47:27.591Z,88.85
2019-05-21T23:49:57.093Z,88.78
2019-05-21T23:52:27.635Z,88.75
2019-05-21T23:54:59.886Z,88.69
2019-05-21T23:57:30.826Z,88.69
